Terminal Aerodrome Forecast
Issued by NWS

Home | Current Version | Previous Version | Text Only | Print | Product List | Glossary On
Versions: 1 2 3 4 5 6 7 8 9 10 11 12 13 14 15 16 17 18 19 20
000
FTUS43 KBIS 012300
TAFJMS
TAF
KJMS 012320Z 0200/0224 28012KT P6SM BKN045
     FM020200 29008KT P6SM BKN040
     FM021200 26005KT P6SM SCT190
     FM022000 25014KT P6SM BKN070
     FM022300 29017G25KT P6SM VCSH BKN070=

USA.gov is the U.S. government's official web portal to all federal, state and local government web resources and services.